Terminal Aerodrome Forecast
Issued by NWS Upton, NY

Home | Current Version | Previous Version | Text Only | Print | Product List | Glossary On
Versions: 1 2 3 4 5 6 7 8 9 10 11 12 13 14 15 16 17 18 19 20 21 22 23 24 25 26 27 28 29 30 31 32 33 34 35 36 37 38
000
FTUS41 KOKX 250216 AAB
TAFISP
TAF AMD
KISP 250216Z 2502/2524 33018G24KT P6SM -SHRA SCT015 BKN025
      TEMPO 2502/2505 3SM -RA BR BKN015
     FM250600 31018G23KT P6SM SCT015 SCT050
     FM251200 30016G22KT P6SM SCT015 SCT025
     FM251600 29013G19KT P6SM SCT025
     FM252100 27010KT P6SM FEW025 SCT060=

USA.gov is the U.S. government's official web portal to all federal, state and local government web resources and services.